sensor_id;sensor_type;location;lat;lon;timestamp;P1;durP1;ratioP1;P2;durP2;ratioP2
35126;SDS011;21300;52.006;5.798;2024-03-25T00:00:28;7.38;;;2.55;;
35126;SDS011;21300;52.006;5.798;2024-03-25T00:02:54;11.98;;;2.35;;
35126;SDS011;21300;52.006;5.798;2024-03-25T00:05:20;7.00;;;2.13;;
35126;SDS011;21300;52.006;5.798;2024-03-25T00:07:50;13.70;;;2.28;;
35126;SDS011;21300;52.006;5.798;2024-03-25T00:10:17;11.75;;;2.08;;
35126;SDS011;21300;52.006;5.798;2024-03-25T00:12:45;7.28;;;1.88;;
35126;SDS011;21300;52.006;5.798;2024-03-25T00:15:12;16.05;;;2.67;;
35126;SDS011;21300;52.006;5.798;2024-03-25T00:17:37;14.55;;;2.08;;
35126;SDS011;21300;52.006;5.798;2024-03-25T00:20:03;10.32;;;1.95;;
35126;SDS011;21300;52.006;5.798;2024-03-25T00:22:34;7.22;;;2.67;;
35126;SDS011;21300;52.006;5.798;2024-03-25T00:25:00;10.57;;;1.95;;
35126;SDS011;21300;52.006;5.798;2024-03-25T00:27:25;7.75;;;1.75;;
35126;SDS011;21300;52.006;5.798;2024-03-25T00:29:51;9.27;;;1.90;;
35126;SDS011;21300;52.006;5.798;2024-03-25T00:32:17;8.50;;;2.10;;
35126;SDS011;21300;52.006;5.798;2024-03-25T00:34:42;12.20;;;2.38;;
35126;SDS011;21300;52.006;5.798;2024-03-25T00:37:08;7.05;;;1.95;;
35126;SDS011;21300;52.006;5.798;2024-03-25T00:39:34;11.63;;;2.30;;
35126;SDS011;21300;52.006;5.798;2024-03-25T00:42:00;7.57;;;2.13;;
35126;SDS011;21300;52.006;5.798;2024-03-25T00:44:25;10.38;;;1.88;;
35126;SDS011;21300;52.006;5.798;2024-03-25T00:46:51;15.00;;;2.05;;
35126;SDS011;21300;52.006;5.798;2024-03-25T00:49:17;8.65;;;2.47;;
35126;SDS011;21300;52.006;5.798;2024-03-25T00:51:42;12.73;;;2.47;;
35126;SDS011;21300;52.006;5.798;2024-03-25T00:54:08;13.80;;;2.45;;
35126;SDS011;21300;52.006;5.798;2024-03-25T00:56:33;14.27;;;2.35;;
35126;SDS011;21300;52.006;5.798;2024-03-25T00:58:59;13.02;;;2.72;;
35126;SDS011;21300;52.006;5.798;2024-03-25T01:01:31;16.65;;;2.65;;
35126;SDS011;21300;52.006;5.798;2024-03-25T01:04:01;6.55;;;1.73;;
35126;SDS011;21300;52.006;5.798;2024-03-25T01:06:27;10.25;;;1.67;;
35126;SDS011;21300;52.006;5.798;2024-03-25T01:08:53;8.30;;;2.08;;
35126;SDS011;21300;52.006;5.798;2024-03-25T01:11:18;7.75;;;1.83;;
35126;SDS011;21300;52.006;5.798;2024-03-25T01:13:44;9.38;;;2.15;;
35126;SDS011;21300;52.006;5.798;2024-03-25T01:16:11;6.95;;;2.00;;
35126;SDS011;21300;52.006;5.798;2024-03-25T01:18:37;8.60;;;2.15;;
35126;SDS011;21300;52.006;5.798;2024-03-25T01:21:04;7.13;;;1.95;;
35126;SDS011;21300;52.006;5.798;2024-03-25T01:23:30;9.25;;;2.05;;
35126;SDS011;21300;52.006;5.798;2024-03-25T01:25:55;2.95;;;1.58;;
35126;SDS011;21300;52.006;5.798;2024-03-25T01:28:21;6.47;;;1.67;;
35126;SDS011;21300;52.006;5.798;2024-03-25T01:30:47;7.63;;;2.40;;
35126;SDS011;21300;52.006;5.798;2024-03-25T01:33:13;7.85;;;2.30;;
35126;SDS011;21300;52.006;5.798;2024-03-25T01:35:40;7.70;;;2.17;;
35126;SDS011;21300;52.006;5.798;2024-03-25T01:38:05;6.53;;;2.33;;
35126;SDS011;21300;52.006;5.798;2024-03-25T01:40:31;7.45;;;2.33;;
35126;SDS011;21300;52.006;5.798;2024-03-25T01:42:57;12.32;;;3.05;;
35126;SDS011;21300;52.006;5.798;2024-03-25T01:45:24;9.23;;;1.90;;
35126;SDS011;21300;52.006;5.798;2024-03-25T01:47:51;7.63;;;1.98;;
35126;SDS011;21300;52.006;5.798;2024-03-25T01:50:17;3.78;;;1.83;;
35126;SDS011;21300;52.006;5.798;2024-03-25T01:52:44;9.90;;;1.98;;
35126;SDS011;21300;52.006;5.798;2024-03-25T01:55:10;8.73;;;2.10;;
35126;SDS011;21300;52.006;5.798;2024-03-25T01:57:41;5.15;;;1.80;;
35126;SDS011;21300;52.006;5.798;2024-03-25T02:00:09;6.05;;;1.85;;
35126;SDS011;21300;52.006;5.798;2024-03-25T02:02:35;8.90;;;2.38;;
35126;SDS011;21300;52.006;5.798;2024-03-25T02:05:06;7.80;;;1.60;;
35126;SDS011;21300;52.006;5.798;2024-03-25T02:07:34;7.22;;;2.15;;
35126;SDS011;21300;52.006;5.798;2024-03-25T02:10:06;9.18;;;2.70;;
35126;SDS011;21300;52.006;5.798;2024-03-25T02:12:34;12.90;;;2.38;;
35126;SDS011;21300;52.006;5.798;2024-03-25T02:15:01;14.35;;;2.55;;
35126;SDS011;21300;52.006;5.798;2024-03-25T02:17:27;9.07;;;1.73;;
35126;SDS011;21300;52.006;5.798;2024-03-25T02:19:53;6.75;;;1.67;;
35126;SDS011;21300;52.006;5.798;2024-03-25T02:22:18;11.02;;;2.15;;
35126;SDS011;21300;52.006;5.798;2024-03-25T02:24:48;7.97;;;1.88;;
35126;SDS011;21300;52.006;5.798;2024-03-25T02:27:16;11.13;;;2.72;;
35126;SDS011;21300;52.006;5.798;2024-03-25T02:29:43;8.18;;;1.80;;
35126;SDS011;21300;52.006;5.798;2024-03-25T02:32:09;9.82;;;2.25;;
35126;SDS011;21300;52.006;5.798;2024-03-25T02:34:39;5.13;;;1.90;;
35126;SDS011;21300;52.006;5.798;2024-03-25T02:37:11;13.98;;;2.47;;
35126;SDS011;21300;52.006;5.798;2024-03-25T02:39:37;9.60;;;2.45;;
35126;SDS011;21300;52.006;5.798;2024-03-25T02:42:03;14.68;;;2.38;;
35126;SDS011;21300;52.006;5.798;2024-03-25T02:44:30;12.32;;;1.98;;
35126;SDS011;21300;52.006;5.798;2024-03-25T02:46:57;14.38;;;2.45;;
35126;SDS011;21300;52.006;5.798;2024-03-25T02:49:23;15.93;;;2.00;;
35126;SDS011;21300;52.006;5.798;2024-03-25T02:51:48;14.05;;;2.70;;
35126;SDS011;21300;52.006;5.798;2024-03-25T02:54:14;11.60;;;2.13;;
35126;SDS011;21300;52.006;5.798;2024-03-25T02:56:40;8.77;;;1.92;;
35126;SDS011;21300;52.006;5.798;2024-03-25T02:59:06;14.32;;;2.72;;
35126;SDS011;21300;52.006;5.798;2024-03-25T03:01:32;15.68;;;3.05;;
35126;SDS011;21300;52.006;5.798;2024-03-25T03:03:58;13.73;;;2.90;;
35126;SDS011;21300;52.006;5.798;2024-03-25T03:06:24;12.95;;;2.67;;
35126;SDS011;21300;52.006;5.798;2024-03-25T03:08:49;10.32;;;2.60;;
35126;SDS011;21300;52.006;5.798;2024-03-25T03:11:15;14.02;;;2.90;;
35126;SDS011;21300;52.006;5.798;2024-03-25T03:13:40;10.55;;;2.17;;
35126;SDS011;21300;52.006;5.798;2024-03-25T03:16:06;15.90;;;2.67;;
35126;SDS011;21300;52.006;5.798;2024-03-25T03:18:32;13.18;;;2.90;;
35126;SDS011;21300;52.006;5.798;2024-03-25T03:20:57;17.95;;;3.53;;
35126;SDS011;21300;52.006;5.798;2024-03-25T03:23:23;12.27;;;2.33;;
35126;SDS011;21300;52.006;5.798;2024-03-25T03:25:49;10.93;;;2.08;;
35126;SDS011;21300;52.006;5.798;2024-03-25T03:28:15;5.55;;;1.92;;
35126;SDS011;21300;52.006;5.798;2024-03-25T03:30:41;7.60;;;1.98;;
35126;SDS011;21300;52.006;5.798;2024-03-25T03:33:07;9.82;;;1.98;;
35126;SDS011;21300;52.006;5.798;2024-03-25T03:35:33;10.68;;;2.35;;
35126;SDS011;21300;52.006;5.798;2024-03-25T03:37:59;8.55;;;2.10;;
35126;SDS011;21300;52.006;5.798;2024-03-25T03:40:24;9.88;;;2.40;;
35126;SDS011;21300;52.006;5.798;2024-03-25T03:42:50;10.73;;;2.40;;
35126;SDS011;21300;52.006;5.798;2024-03-25T03:45:15;9.38;;;1.98;;
35126;SDS011;21300;52.006;5.798;2024-03-25T03:47:41;6.82;;;1.98;;
35126;SDS011;21300;52.006;5.798;2024-03-25T03:50:07;4.90;;;1.85;;
35126;SDS011;21300;52.006;5.798;2024-03-25T03:52:33;12.30;;;2.25;;
35126;SDS011;21300;52.006;5.798;2024-03-25T03:54:59;4.00;;;1.73;;
35126;SDS011;21300;52.006;5.798;2024-03-25T03:57:25;6.50;;;1.75;;
35126;SDS011;21300;52.006;5.798;2024-03-25T03:59:53;5.90;;;1.73;;
35126;SDS011;21300;52.006;5.798;2024-03-25T04:02:18;7.80;;;1.88;;
35126;SDS011;21300;52.006;5.798;2024-03-25T04:04:45;12.20;;;2.55;;
35126;SDS011;21300;52.006;5.798;2024-03-25T04:07:10;4.82;;;1.98;;
35126;SDS011;21300;52.006;5.798;2024-03-25T04:09:36;11.93;;;2.13;;
35126;SDS011;21300;52.006;5.798;2024-03-25T04:12:01;9.23;;;2.00;;
35126;SDS011;21300;52.006;5.798;2024-03-25T04:14:27;6.47;;;2.17;;
35126;SDS011;21300;52.006;5.798;2024-03-25T04:16:53;9.30;;;1.85;;
35126;SDS011;21300;52.006;5.798;2024-03-25T04:19:23;8.30;;;1.92;;
35126;SDS011;21300;52.006;5.798;2024-03-25T04:21:49;10.20;;;2.35;;
35126;SDS011;21300;52.006;5.798;2024-03-25T04:24:15;12.30;;;2.63;;
35126;SDS011;21300;52.006;5.798;2024-03-25T04:26:40;8.82;;;2.30;;
35126;SDS011;21300;52.006;5.798;2024-03-25T04:29:06;4.43;;;1.63;;
35126;SDS011;21300;52.006;5.798;2024-03-25T04:31:32;15.40;;;2.22;;
35126;SDS011;21300;52.006;5.798;2024-03-25T04:33:57;15.38;;;2.60;;
35126;SDS011;21300;52.006;5.798;2024-03-25T04:36:23;12.55;;;2.83;;
35126;SDS011;21300;52.006;5.798;2024-03-25T04:38:48;7.95;;;2.33;;
35126;SDS011;21300;52.006;5.798;2024-03-25T04:41:14;5.68;;;2.33;;
35126;SDS011;21300;52.006;5.798;2024-03-25T04:43:40;6.45;;;2.45;;
35126;SDS011;21300;52.006;5.798;2024-03-25T04:46:06;14.23;;;2.30;;
35126;SDS011;21300;52.006;5.798;2024-03-25T04:48:31;10.15;;;2.38;;
35126;SDS011;21300;52.006;5.798;2024-03-25T04:50:57;9.48;;;2.65;;
35126;SDS011;21300;52.006;5.798;2024-03-25T04:53:22;6.22;;;2.13;;
35126;SDS011;21300;52.006;5.798;2024-03-25T04:55:48;15.65;;;2.70;;
35126;SDS011;21300;52.006;5.798;2024-03-25T04:58:14;8.73;;;2.40;;
35126;SDS011;21300;52.006;5.798;2024-03-25T05:00:39;6.53;;;2.67;;
35126;SDS011;21300;52.006;5.798;2024-03-25T05:03:05;18.58;;;3.28;;
35126;SDS011;21300;52.006;5.798;2024-03-25T05:05:34;7.88;;;2.47;;
35126;SDS011;21300;52.006;5.798;2024-03-25T05:07:59;12.27;;;2.55;;
35126;SDS011;21300;52.006;5.798;2024-03-25T05:10:28;10.07;;;2.33;;
35126;SDS011;21300;52.006;5.798;2024-03-25T05:12:54;7.50;;;1.98;;
35126;SDS011;21300;52.006;5.798;2024-03-25T05:15:20;8.07;;;2.47;;
35126;SDS011;21300;52.006;5.798;2024-03-25T05:17:46;8.35;;;2.85;;
35126;SDS011;21300;52.006;5.798;2024-03-25T05:20:12;10.55;;;2.97;;
35126;SDS011;21300;52.006;5.798;2024-03-25T05:22:37;9.50;;;2.63;;
35126;SDS011;21300;52.006;5.798;2024-03-25T05:25:03;7.78;;;2.30;;
35126;SDS011;21300;52.006;5.798;2024-03-25T05:27:29;8.95;;;2.63;;
35126;SDS011;21300;52.006;5.798;2024-03-25T05:29:55;10.32;;;2.63;;
35126;SDS011;21300;52.006;5.798;2024-03-25T05:32:23;11.73;;;2.90;;
35126;SDS011;21300;52.006;5.798;2024-03-25T05:34:50;10.57;;;3.35;;
35126;SDS011;21300;52.006;5.798;2024-03-25T05:37:15;8.27;;;2.38;;
35126;SDS011;21300;52.006;5.798;2024-03-25T05:39:41;8.48;;;3.08;;
35126;SDS011;21300;52.006;5.798;2024-03-25T05:42:07;11.52;;;3.13;;
35126;SDS011;21300;52.006;5.798;2024-03-25T05:44:32;16.95;;;3.88;;
35126;SDS011;21300;52.006;5.798;2024-03-25T05:46:58;18.75;;;3.85;;
35126;SDS011;21300;52.006;5.798;2024-03-25T05:49:23;9.55;;;3.42;;
35126;SDS011;21300;52.006;5.798;2024-03-25T05:51:49;13.70;;;3.50;;
35126;SDS011;21300;52.006;5.798;2024-03-25T05:54:15;11.88;;;3.92;;
35126;SDS011;21300;52.006;5.798;2024-03-25T05:56:40;9.95;;;3.17;;
35126;SDS011;21300;52.006;5.798;2024-03-25T05:59:06;9.45;;;3.88;;
35126;SDS011;21300;52.006;5.798;2024-03-25T06:01:32;20.33;;;4.30;;
35126;SDS011;21300;52.006;5.798;2024-03-25T06:03:58;11.75;;;3.90;;
35126;SDS011;21300;52.006;5.798;2024-03-25T06:06:24;10.07;;;4.32;;
35126;SDS011;21300;52.006;5.798;2024-03-25T06:08:50;11.43;;;4.25;;
35126;SDS011;21300;52.006;5.798;2024-03-25T06:11:18;13.70;;;4.50;;
35126;SDS011;21300;52.006;5.798;2024-03-25T06:13:47;13.75;;;4.35;;
35126;SDS011;21300;52.006;5.798;2024-03-25T06:16:13;13.82;;;4.28;;
35126;SDS011;21300;52.006;5.798;2024-03-25T06:18:39;15.50;;;4.50;;
35126;SDS011;21300;52.006;5.798;2024-03-25T06:21:07;12.07;;;4.25;;
35126;SDS011;21300;52.006;5.798;2024-03-25T06:23:33;14.63;;;4.45;;
35126;SDS011;21300;52.006;5.798;2024-03-25T06:25:58;19.02;;;4.47;;
35126;SDS011;21300;52.006;5.798;2024-03-25T06:28:27;14.27;;;4.60;;
35126;SDS011;21300;52.006;5.798;2024-03-25T06:30:53;8.63;;;4.32;;
35126;SDS011;21300;52.006;5.798;2024-03-25T06:33:37;15.00;;;4.43;;
35126;SDS011;21300;52.006;5.798;2024-03-25T06:36:21;10.00;;;4.13;;
35126;SDS011;21300;52.006;5.798;2024-03-25T06:38:47;14.65;;;4.68;;
35126;SDS011;21300;52.006;5.798;2024-03-25T06:41:13;20.60;;;4.85;;
35126;SDS011;21300;52.006;5.798;2024-03-25T06:43:39;16.90;;;5.30;;
35126;SDS011;21300;52.006;5.798;2024-03-25T06:46:05;15.90;;;5.03;;
35126;SDS011;21300;52.006;5.798;2024-03-25T06:48:49;20.40;;;5.03;;
35126;SDS011;21300;52.006;5.798;2024-03-25T06:51:17;21.05;;;4.63;;
35126;SDS011;21300;52.006;5.798;2024-03-25T06:53:43;15.95;;;4.68;;
35126;SDS011;21300;52.006;5.798;2024-03-25T06:56:09;13.50;;;5.15;;
35126;SDS011;21300;52.006;5.798;2024-03-25T06:58:35;17.25;;;4.55;;
35126;SDS011;21300;52.006;5.798;2024-03-25T07:01:05;15.75;;;4.80;;
35126;SDS011;21300;52.006;5.798;2024-03-25T07:03:32;20.15;;;5.53;;
35126;SDS011;21300;52.006;5.798;2024-03-25T07:05:58;12.75;;;4.70;;
35126;SDS011;21300;52.006;5.798;2024-03-25T07:08:25;19.45;;;5.75;;
35126;SDS011;21300;52.006;5.798;2024-03-25T07:10:55;15.82;;;5.15;;
35126;SDS011;21300;52.006;5.798;2024-03-25T07:13:23;23.92;;;6.53;;
35126;SDS011;21300;52.006;5.798;2024-03-25T07:15:49;21.35;;;5.32;;
35126;SDS011;21300;52.006;5.798;2024-03-25T07:18:15;17.33;;;4.90;;
35126;SDS011;21300;52.006;5.798;2024-03-25T07:20:44;16.60;;;5.03;;
35126;SDS011;21300;52.006;5.798;2024-03-25T07:23:10;18.98;;;5.28;;
35126;SDS011;21300;52.006;5.798;2024-03-25T07:25:36;17.20;;;6.10;;
35126;SDS011;21300;52.006;5.798;2024-03-25T07:28:02;13.05;;;5.32;;
35126;SDS011;21300;52.006;5.798;2024-03-25T07:30:29;23.48;;;6.13;;
35126;SDS011;21300;52.006;5.798;2024-03-25T07:32:58;18.42;;;5.32;;
35126;SDS011;21300;52.006;5.798;2024-03-25T07:35:24;25.02;;;5.95;;
35126;SDS011;21300;52.006;5.798;2024-03-25T07:37:50;18.70;;;5.93;;
35126;SDS011;21300;52.006;5.798;2024-03-25T07:40:16;27.20;;;5.80;;
35126;SDS011;21300;52.006;5.798;2024-03-25T07:42:46;19.77;;;5.32;;
35126;SDS011;21300;52.006;5.798;2024-03-25T07:45:12;23.42;;;5.38;;
35126;SDS011;21300;52.006;5.798;2024-03-25T07:47:40;22.80;;;5.53;;
35126;SDS011;21300;52.006;5.798;2024-03-25T07:50:06;18.30;;;5.05;;
35126;SDS011;21300;52.006;5.798;2024-03-25T07:52:33;23.10;;;5.95;;
35126;SDS011;21300;52.006;5.798;2024-03-25T07:55:01;30.05;;;6.20;;
35126;SDS011;21300;52.006;5.798;2024-03-25T07:57:27;18.50;;;5.93;;
35126;SDS011;21300;52.006;5.798;2024-03-25T07:59:53;25.75;;;5.95;;
35126;SDS011;21300;52.006;5.798;2024-03-25T08:02:20;22.33;;;5.95;;
35126;SDS011;21300;52.006;5.798;2024-03-25T08:04:46;22.92;;;5.93;;
35126;SDS011;21300;52.006;5.798;2024-03-25T08:07:11;20.45;;;5.57;;
35126;SDS011;21300;52.006;5.798;2024-03-25T08:09:38;15.07;;;5.30;;
35126;SDS011;21300;52.006;5.798;2024-03-25T08:12:04;19.38;;;6.32;;
35126;SDS011;21300;52.006;5.798;2024-03-25T08:14:30;23.02;;;5.40;;
35126;SDS011;21300;52.006;5.798;2024-03-25T08:16:56;18.45;;;5.93;;
35126;SDS011;21300;52.006;5.798;2024-03-25T08:19:21;18.15;;;5.20;;
35126;SDS011;21300;52.006;5.798;2024-03-25T08:21:47;23.85;;;5.30;;
35126;SDS011;21300;52.006;5.798;2024-03-25T08:24:16;17.00;;;6.13;;
35126;SDS011;21300;52.006;5.798;2024-03-25T08:26:42;15.80;;;5.20;;
35126;SDS011;21300;52.006;5.798;2024-03-25T08:29:07;13.85;;;5.35;;
35126;SDS011;21300;52.006;5.798;2024-03-25T08:31:33;15.82;;;5.65;;
35126;SDS011;21300;52.006;5.798;2024-03-25T08:33:58;21.35;;;6.50;;
35126;SDS011;21300;52.006;5.798;2024-03-25T08:36:24;21.48;;;5.40;;
35126;SDS011;21300;52.006;5.798;2024-03-25T08:38:50;17.45;;;4.85;;
35126;SDS011;21300;52.006;5.798;2024-03-25T08:41:15;19.67;;;5.32;;
35126;SDS011;21300;52.006;5.798;2024-03-25T08:43:41;22.23;;;5.85;;
35126;SDS011;21300;52.006;5.798;2024-03-25T08:46:07;19.80;;;4.72;;
35126;SDS011;21300;52.006;5.798;2024-03-25T08:48:32;12.20;;;3.50;;
35126;SDS011;21300;52.006;5.798;2024-03-25T08:50:58;17.90;;;3.42;;
35126;SDS011;21300;52.006;5.798;2024-03-25T08:53:23;10.80;;;3.15;;
35126;SDS011;21300;52.006;5.798;2024-03-25T08:55:49;13.57;;;3.90;;
35126;SDS011;21300;52.006;5.798;2024-03-25T08:58:15;16.45;;;4.03;;
35126;SDS011;21300;52.006;5.798;2024-03-25T09:00:43;14.23;;;3.17;;
35126;SDS011;21300;52.006;5.798;2024-03-25T09:03:09;12.93;;;3.50;;
35126;SDS011;21300;52.006;5.798;2024-03-25T09:05:35;8.70;;;2.75;;
35126;SDS011;21300;52.006;5.798;2024-03-25T09:08:04;13.45;;;2.72;;
35126;SDS011;21300;52.006;5.798;2024-03-25T09:10:31;6.95;;;2.53;;
35126;SDS011;21300;52.006;5.798;2024-03-25T09:13:15;12.30;;;2.78;;
35126;SDS011;21300;52.006;5.798;2024-03-25T09:15:41;14.00;;;4.75;;
35126;SDS011;21300;52.006;5.798;2024-03-25T09:18:07;10.73;;;4.90;;
35126;SDS011;21300;52.006;5.798;2024-03-25T09:20:33;16.27;;;5.78;;
35126;SDS011;21300;52.006;5.798;2024-03-25T09:22:58;25.80;;;5.15;;
35126;SDS011;21300;52.006;5.798;2024-03-25T09:25:24;14.85;;;5.00;;
35126;SDS011;21300;52.006;5.798;2024-03-25T09:27:50;16.48;;;4.85;;
35126;SDS011;21300;52.006;5.798;2024-03-25T09:30:17;14.43;;;4.75;;
35126;SDS011;21300;52.006;5.798;2024-03-25T09:32:46;10.73;;;3.85;;
35126;SDS011;21300;52.006;5.798;2024-03-25T09:35:12;18.08;;;4.63;;
35126;SDS011;21300;52.006;5.798;2024-03-25T09:37:38;20.75;;;5.18;;
35126;SDS011;21300;52.006;5.798;2024-03-25T09:40:04;10.45;;;3.38;;
35126;SDS011;21300;52.006;5.798;2024-03-25T09:42:34;13.57;;;4.20;;
35126;SDS011;21300;52.006;5.798;2024-03-25T09:45:07;11.00;;;4.10;;
35126;SDS011;21300;52.006;5.798;2024-03-25T09:47:34;9.82;;;3.47;;
35126;SDS011;21300;52.006;5.798;2024-03-25T09:50:02;17.13;;;5.50;;
35126;SDS011;21300;52.006;5.798;2024-03-25T09:52:29;18.67;;;4.18;;
35126;SDS011;21300;52.006;5.798;2024-03-25T09:54:55;10.25;;;3.38;;
35126;SDS011;21300;52.006;5.798;2024-03-25T09:57:21;13.80;;;4.82;;
35126;SDS011;21300;52.006;5.798;2024-03-25T09:59:47;16.63;;;4.40;;
35126;SDS011;21300;52.006;5.798;2024-03-25T10:02:13;24.52;;;5.05;;
35126;SDS011;21300;52.006;5.798;2024-03-25T10:04:45;13.85;;;3.80;;
35126;SDS011;21300;52.006;5.798;2024-03-25T10:07:21;11.73;;;3.83;;
35126;SDS011;21300;52.006;5.798;2024-03-25T10:09:49;11.18;;;4.00;;
35126;SDS011;21300;52.006;5.798;2024-03-25T10:12:15;14.10;;;3.70;;
35126;SDS011;21300;52.006;5.798;2024-03-25T10:14:41;8.02;;;3.20;;
35126;SDS011;21300;52.006;5.798;2024-03-25T10:17:07;12.95;;;3.85;;
35126;SDS011;21300;52.006;5.798;2024-03-25T10:19:33;7.60;;;3.10;;
35126;SDS011;21300;52.006;5.798;2024-03-25T10:22:04;7.85;;;2.90;;
35126;SDS011;21300;52.006;5.798;2024-03-25T10:24:40;10.18;;;2.65;;
35126;SDS011;21300;52.006;5.798;2024-03-25T10:27:10;9.65;;;2.75;;
35126;SDS011;21300;52.006;5.798;2024-03-25T10:29:46;10.65;;;3.40;;
35126;SDS011;21300;52.006;5.798;2024-03-25T10:32:12;11.70;;;3.40;;
35126;SDS011;21300;52.006;5.798;2024-03-25T10:34:38;10.25;;;2.97;;
35126;SDS011;21300;52.006;5.798;2024-03-25T10:37:04;9.13;;;2.70;;
35126;SDS011;21300;52.006;5.798;2024-03-25T10:39:33;14.38;;;3.55;;
35126;SDS011;21300;52.006;5.798;2024-03-25T10:42:05;11.10;;;3.53;;
35126;SDS011;21300;52.006;5.798;2024-03-25T10:44:30;7.78;;;2.42;;
35126;SDS011;21300;52.006;5.798;2024-03-25T10:47:02;12.73;;;3.17;;
35126;SDS011;21300;52.006;5.798;2024-03-25T10:52:02;12.35;;;3.63;;
35126;SDS011;21300;52.006;5.798;2024-03-25T10:54:30;8.48;;;3.50;;
35126;SDS011;21300;52.006;5.798;2024-03-25T10:56:58;8.85;;;3.20;;
35126;SDS011;21300;52.006;5.798;2024-03-25T10:59:24;8.18;;;3.42;;
35126;SDS011;21300;52.006;5.798;2024-03-25T11:01:52;12.50;;;4.07;;
35126;SDS011;21300;52.006;5.798;2024-03-25T11:04:18;9.77;;;3.60;;
35126;SDS011;21300;52.006;5.798;2024-03-25T11:06:45;11.85;;;3.03;;
35126;SDS011;21300;52.006;5.798;2024-03-25T11:09:21;6.97;;;2.65;;
35126;SDS011;21300;52.006;5.798;2024-03-25T11:11:51;8.68;;;3.70;;
35126;SDS011;21300;52.006;5.798;2024-03-25T11:14:17;9.90;;;3.30;;
35126;SDS011;21300;52.006;5.798;2024-03-25T11:16:43;7.30;;;3.17;;
35126;SDS011;21300;52.006;5.798;2024-03-25T11:19:17;12.55;;;3.42;;
35126;SDS011;21300;52.006;5.798;2024-03-25T11:21:43;10.43;;;3.30;;
35126;SDS011;21300;52.006;5.798;2024-03-25T11:24:09;8.65;;;2.67;;
35126;SDS011;21300;52.006;5.798;2024-03-25T11:26:39;9.05;;;3.00;;
35126;SDS011;21300;52.006;5.798;2024-03-25T11:29:06;12.18;;;3.17;;
35126;SDS011;21300;52.006;5.798;2024-03-25T11:31:32;12.07;;;3.08;;
35126;SDS011;21300;52.006;5.798;2024-03-25T11:34:05;8.75;;;3.58;;
35126;SDS011;21300;52.006;5.798;2024-03-25T11:36:33;10.52;;;2.92;;
35126;SDS011;21300;52.006;5.798;2024-03-25T11:39:05;12.32;;;2.65;;
35126;SDS011;21300;52.006;5.798;2024-03-25T11:41:41;6.60;;;2.95;;
35126;SDS011;21300;52.006;5.798;2024-03-25T11:44:07;9.82;;;3.53;;
35126;SDS011;21300;52.006;5.798;2024-03-25T11:46:37;6.85;;;3.20;;
35126;SDS011;21300;52.006;5.798;2024-03-25T11:49:05;8.57;;;2.97;;
35126;SDS011;21300;52.006;5.798;2024-03-25T11:51:33;8.55;;;3.60;;
35126;SDS011;21300;52.006;5.798;2024-03-25T11:53:58;9.35;;;4.05;;
35126;SDS011;21300;52.006;5.798;2024-03-25T11:56:25;5.97;;;3.70;;
35126;SDS011;21300;52.006;5.798;2024-03-25T11:58:51;8.93;;;3.90;;
35126;SDS011;21300;52.006;5.798;2024-03-25T12:01:17;11.57;;;4.10;;
35126;SDS011;21300;52.006;5.798;2024-03-25T12:03:43;8.45;;;3.85;;
35126;SDS011;21300;52.006;5.798;2024-03-25T12:06:08;9.15;;;3.72;;
35126;SDS011;21300;52.006;5.798;2024-03-25T12:08:34;8.57;;;4.10;;
35126;SDS011;21300;52.006;5.798;2024-03-25T12:11:09;6.15;;;3.13;;
35126;SDS011;21300;52.006;5.798;2024-03-25T12:13:44;5.57;;;3.08;;
35126;SDS011;21300;52.006;5.798;2024-03-25T12:16:10;6.53;;;3.55;;
35126;SDS011;21300;52.006;5.798;2024-03-25T12:18:39;7.88;;;3.72;;
35126;SDS011;21300;52.006;5.798;2024-03-25T12:21:06;9.65;;;4.00;;
35126;SDS011;21300;52.006;5.798;2024-03-25T12:23:32;10.07;;;3.55;;
35126;SDS011;21300;52.006;5.798;2024-03-25T12:25:59;5.85;;;3.40;;
35126;SDS011;21300;52.006;5.798;2024-03-25T12:28:25;7.38;;;2.88;;
35126;SDS011;21300;52.006;5.798;2024-03-25T12:30:52;10.43;;;3.17;;
35126;SDS011;21300;52.006;5.798;2024-03-25T12:33:22;6.55;;;3.60;;
35126;SDS011;21300;52.006;5.798;2024-03-25T12:35:50;5.82;;;3.03;;
35126;SDS011;21300;52.006;5.798;2024-03-25T12:38:23;5.90;;;2.80;;
35126;SDS011;21300;52.006;5.798;2024-03-25T12:41:03;7.18;;;3.20;;
35126;SDS011;21300;52.006;5.798;2024-03-25T12:43:33;8.70;;;3.10;;
35126;SDS011;21300;52.006;5.798;2024-03-25T12:46:01;5.20;;;2.90;;
35126;SDS011;21300;52.006;5.798;2024-03-25T12:48:30;4.15;;;2.85;;
35126;SDS011;21300;52.006;5.798;2024-03-25T12:50:55;6.13;;;2.97;;
35126;SDS011;21300;52.006;5.798;2024-03-25T12:53:21;7.75;;;2.88;;
35126;SDS011;21300;52.006;5.798;2024-03-25T12:55:47;4.63;;;2.97;;
35126;SDS011;21300;52.006;5.798;2024-03-25T12:58:13;8.70;;;2.55;;
35126;SDS011;21300;52.006;5.798;2024-03-25T13:00:39;6.10;;;3.45;;
35126;SDS011;21300;52.006;5.798;2024-03-25T13:03:05;6.32;;;2.70;;
35126;SDS011;21300;52.006;5.798;2024-03-25T13:05:33;8.68;;;2.92;;
35126;SDS011;21300;52.006;5.798;2024-03-25T13:07:59;7.45;;;2.75;;
35126;SDS011;21300;52.006;5.798;2024-03-25T13:10:25;4.50;;;2.50;;
35126;SDS011;21300;52.006;5.798;2024-03-25T13:12:52;4.25;;;2.70;;
35126;SDS011;21300;52.006;5.798;2024-03-25T13:15:18;5.68;;;3.03;;
35126;SDS011;21300;52.006;5.798;2024-03-25T13:17:43;9.57;;;3.03;;
35126;SDS011;21300;52.006;5.798;2024-03-25T13:20:09;5.32;;;2.65;;
35126;SDS011;21300;52.006;5.798;2024-03-25T13:22:35;7.60;;;2.90;;
35126;SDS011;21300;52.006;5.798;2024-03-25T13:25:00;3.92;;;2.45;;
35126;SDS011;21300;52.006;5.798;2024-03-25T13:27:26;4.82;;;2.67;;
35126;SDS011;21300;52.006;5.798;2024-03-25T13:29:52;6.95;;;3.00;;
35126;SDS011;21300;52.006;5.798;2024-03-25T13:32:20;7.45;;;3.17;;
35126;SDS011;21300;52.006;5.798;2024-03-25T13:34:48;8.73;;;3.85;;
35126;SDS011;21300;52.006;5.798;2024-03-25T13:37:16;5.25;;;2.92;;
35126;SDS011;21300;52.006;5.798;2024-03-25T13:39:42;8.27;;;2.80;;
35126;SDS011;21300;52.006;5.798;2024-03-25T13:42:08;6.55;;;3.00;;
35126;SDS011;21300;52.006;5.798;2024-03-25T13:44:33;5.35;;;2.80;;
35126;SDS011;21300;52.006;5.798;2024-03-25T13:47:02;4.35;;;2.60;;
35126;SDS011;21300;52.006;5.798;2024-03-25T13:49:28;6.63;;;2.83;;
35126;SDS011;21300;52.006;5.798;2024-03-25T13:51:57;5.93;;;3.13;;
35126;SDS011;21300;52.006;5.798;2024-03-25T13:54:28;5.30;;;2.80;;
35126;SDS011;21300;52.006;5.798;2024-03-25T13:56:57;5.00;;;2.33;;
35126;SDS011;21300;52.006;5.798;2024-03-25T13:59:23;6.00;;;2.47;;
35126;SDS011;21300;52.006;5.798;2024-03-25T14:01:48;7.03;;;2.33;;
35126;SDS011;21300;52.006;5.798;2024-03-25T14:04:14;4.22;;;2.38;;
35126;SDS011;21300;52.006;5.798;2024-03-25T14:06:40;6.38;;;2.60;;
35126;SDS011;21300;52.006;5.798;2024-03-25T14:09:06;2.97;;;2.10;;
35126;SDS011;21300;52.006;5.798;2024-03-25T14:11:34;5.93;;;2.65;;
35126;SDS011;21300;52.006;5.798;2024-03-25T14:14:00;5.60;;;2.95;;
35126;SDS011;21300;52.006;5.798;2024-03-25T14:16:26;4.53;;;2.60;;
35126;SDS011;21300;52.006;5.798;2024-03-25T14:18:52;3.58;;;2.53;;
35126;SDS011;21300;52.006;5.798;2024-03-25T14:21:18;8.73;;;2.60;;
35126;SDS011;21300;52.006;5.798;2024-03-25T14:23:43;5.35;;;2.45;;
35126;SDS011;21300;52.006;5.798;2024-03-25T14:26:11;7.18;;;2.65;;
35126;SDS011;21300;52.006;5.798;2024-03-25T14:28:40;3.63;;;2.25;;
35126;SDS011;21300;52.006;5.798;2024-03-25T14:31:06;5.97;;;2.65;;
35126;SDS011;21300;52.006;5.798;2024-03-25T14:33:31;8.02;;;2.85;;
35126;SDS011;21300;52.006;5.798;2024-03-25T14:35:57;8.43;;;2.72;;
35126;SDS011;21300;52.006;5.798;2024-03-25T14:38:23;4.22;;;2.13;;
35126;SDS011;21300;52.006;5.798;2024-03-25T14:40:48;7.55;;;3.00;;